Check out our new BloomSky Weather System.

Active alerts


No alerts


Thunder radar  blitzortung!


Rain radar more information rain snow radar


Visit our other weather sites:

Template documentation
and downloads

And another site



Weather Underground History page Text

Daily Summary for July 15, 2017 Units:  English    Metric   Both
« Previous Day
Next Day »
Daily Weekly Monthly Yearly Custom
  High: Low: Average:
Temperature: 95.2 °F 73.6 °F 80.6 °F
Dew Point: 81.5 °F 73.2 °F 76.4 °F
Humidity: 100 % 57 % 88 %
Wind Speed: 12.0 mph 0.0 mph 0.9 mph
Wind Gust: 19.0 mph - -
Wind:- - SW
Pressure: 30.07 in 29.92 in -
Precipitation: 1.39 in    
Historical Graphs
 
 
Tabular Data for July 15, 2017
Time Temperature Dew Point Pressure Wind Wind Speed Wind Gust Humidity Rainfall Rate (Hourly)
00:03 82.6 °F 77.5 °F 30.06 in Calm   2.0 mph 85 % 0.00 in
00:08 82.6 °F 77.5 °F 30.06 in Calm   1.0 mph 85 % 0.00 in
00:09 82.6 °F 77.5 °F 30.06 in ESE 1.0 mph 1.0 mph 85 % 0.00 in
00:14 82.6 °F 77.5 °F 30.06 in Calm   1.0 mph 85 % 0.00 in
00:19 82.6 °F 77.5 °F 30.06 in Calm   1.0 mph 85 % 0.00 in
00:24 82.2 °F 77.2 °F 30.06 in Calm   1.0 mph 85 % 0.00 in
00:29 82.2 °F 77.5 °F 30.06 in Calm   1.0 mph 86 % 0.00 in
00:34 82.2 °F 77.2 °F 30.06 in Calm   1.0 mph 85 % 0.00 in
00:39 82.0 °F 77.4 °F 30.05 in SSE 1.0 mph 1.0 mph 86 % 0.00 in
00:44 81.9 °F 77.2 °F 30.05 in Calm   1.0 mph 86 % 0.00 in
00:49 81.9 °F 77.2 °F 30.05 in Calm   2.0 mph 86 % 0.00 in
00:54 81.7 °F 77.4 °F 30.05 in SSW 1.0 mph 2.0 mph 87 % 0.00 in
00:59 81.7 °F 77.4 °F 30.05 in Calm   2.0 mph 87 % 0.00 in
01:04 81.5 °F 77.2 °F 30.04 in Calm   2.0 mph 87 % 0.00 in
01:09 81.3 °F 77.4 °F 30.04 in Calm   2.0 mph 88 % 0.00 in
01:14 81.3 °F 77.4 °F 30.04 in Calm   1.0 mph 88 % 0.00 in
01:19 81.1 °F 77.2 °F 30.04 in Calm   1.0 mph 88 % 0.00 in
01:24 81.0 °F 77.0 °F 30.04 in Calm   1.0 mph 88 % 0.00 in
01:29 81.0 °F 77.4 °F 30.04 in Calm   1.0 mph 89 % 0.00 in
01:34 80.8 °F 77.2 °F 30.04 in SSW 1.0 mph   89 % 0.00 in
01:44 80.8 °F 77.2 °F 30.04 in Calm   1.0 mph 89 % 0.00 in
01:49 80.8 °F 77.2 °F 30.05 in Calm   1.0 mph 89 % 0.00 in
01:54 80.4 °F 76.8 °F 30.04 in Calm   1.0 mph 89 % 0.00 in
01:59 80.2 °F 77.0 °F 30.04 in Calm     90 % 0.00 in
02:00 80.2 °F 77.0 °F 30.04 in Calm     90 % 0.00 in
02:05 80.2 °F 77.0 °F 30.04 in Calm     90 % 0.00 in
02:10 80.1 °F 76.8 °F 30.04 in Calm     90 % 0.00 in
02:15 80.1 °F 77.2 °F 30.04 in Calm     91 % 0.00 in
02:20 79.9 °F 77.0 °F 30.04 in Calm     91 % 0.00 in
02:25 79.9 °F 77.0 °F 30.04 in Calm     91 % 0.00 in
02:30 79.9 °F 77.0 °F 30.04 in Calm     91 % 0.00 in
02:35 79.5 °F 76.6 °F 30.04 in Calm     91 % 0.00 in
02:40 79.5 °F 77.0 °F 30.04 in Calm     92 % 0.00 in
02:45 79.5 °F 77.0 °F 30.03 in Calm     92 % 0.00 in
02:50 79.3 °F 76.8 °F 30.03 in Calm     92 % 0.00 in
02:55 79.3 °F 76.8 °F 30.03 in Calm     92 % 0.00 in
03:00 79.3 °F 77.2 °F 30.04 in Calm     93 % 0.00 in
03:05 79.2 °F 77.0 °F 30.04 in Calm     93 % 0.00 in
03:10 79.2 °F 77.0 °F 30.03 in Calm     93 % 0.00 in
03:15 79.2 °F 77.0 °F 30.03 in Calm     93 % 0.00 in
03:20 79.2 °F 77.0 °F 30.03 in Calm   1.0 mph 93 % 0.00 in
03:25 79.2 °F 77.0 °F 30.03 in Calm   1.0 mph 93 % 0.00 in
03:30 79.2 °F 77.0 °F 30.03 in Calm   1.0 mph 93 % 0.00 in
03:35 79.2 °F 77.0 °F 30.03 in Calm     93 % 0.00 in
03:40 79.0 °F 76.8 °F 30.03 in Calm     93 % 0.00 in
03:45 79.0 °F 77.2 °F 30.04 in Calm     94 % 0.00 in
03:50 79.2 °F 77.0 °F 30.03 in Calm     93 % 0.00 in
03:55 79.0 °F 76.8 °F 30.04 in Calm     93 % 0.00 in
04:00 79.0 °F 77.2 °F 30.04 in Calm     94 % 0.00 in
04:05 79.2 °F 77.4 °F 30.04 in Calm   1.0 mph 94 % 0.00 in
04:08 79.2 °F 77.4 °F 30.04 in Calm   1.0 mph 94 % 0.00 in
04:13 79.2 °F 77.4 °F 30.04 in Calm   1.0 mph 94 % 0.00 in
04:18 79.0 °F 77.2 °F 30.03 in Calm   1.0 mph 94 % 0.00 in
04:23 79.0 °F 77.2 °F 30.03 in Calm     94 % 0.00 in
04:28 78.6 °F 76.8 °F 30.03 in Calm     94 % 0.00 in
04:33 78.6 °F 76.8 °F 30.03 in Calm     94 % 0.00 in
04:38 78.4 °F 76.6 °F 30.03 in Calm     94 % 0.00 in
04:43 78.4 °F 76.8 °F 30.03 in Calm     95 % 0.00 in
04:48 78.6 °F 76.8 °F 30.03 in Calm     94 % 0.00 in
04:53 78.6 °F 77.0 °F 30.03 in Calm     95 % 0.00 in
04:58 78.6 °F 77.0 °F 30.03 in Calm     95 % 0.00 in
05:04 78.6 °F 76.8 °F 30.03 in Calm     94 % 0.00 in
05:09 78.4 °F 76.6 °F 30.03 in Calm     94 % 0.00 in
05:14 78.4 °F 76.6 °F 30.03 in Calm     94 % 0.00 in
05:19 78.3 °F 76.5 °F 30.04 in Calm     94 % 0.00 in
05:24 78.1 °F 76.3 °F 30.04 in Calm     94 % 0.00 in
05:29 78.1 °F 76.5 °F 30.04 in Calm     95 % 0.00 in
05:34 78.1 °F 76.5 °F 30.04 in Calm     95 % 0.00 in
05:39 78.3 °F 76.6 °F 30.04 in Calm     95 % 0.00 in
05:44 78.1 °F 76.5 °F 30.04 in Calm     95 % 0.00 in
05:49 78.1 °F 76.5 °F 30.04 in Calm     95 % 0.00 in
05:54 78.1 °F 76.8 °F 30.04 in Calm     96 % 0.00 in
05:59 78.1 °F 76.5 °F 30.04 in Calm     95 % 0.00 in
06:04 78.1 °F 76.8 °F 30.04 in Calm     96 % 0.00 in
06:09 78.1 °F 76.8 °F 30.05 in Calm     96 % 0.00 in
06:14 77.9 °F 76.6 °F 30.05 in Calm     96 % 0.00 in
06:19 77.7 °F 76.1 °F 30.04 in Calm     95 % 0.00 in
06:24 77.5 °F 76.3 °F 30.04 in Calm     96 % 0.00 in
06:29 77.7 °F 76.5 °F 30.05 in Calm     96 % 0.00 in
06:34 77.5 °F 76.3 °F 30.05 in Calm     96 % 0.00 in
06:39 77.5 °F 76.3 °F 30.05 in Calm     96 % 0.00 in
06:44 77.5 °F 76.3 °F 30.05 in Calm     96 % 0.00 in
06:49 77.5 °F 76.3 °F 30.04 in Calm     96 % 0.00 in
06:54 77.5 °F 76.3 °F 30.05 in Calm     96 % 0.00 in
06:55 77.5 °F 76.3 °F 30.05 in Calm     96 % 0.00 in
06:59 77.7 °F 76.5 °F 30.05 in Calm     96 % 0.00 in
07:04 77.9 °F 77.0 °F 30.05 in Calm     97 % 0.00 in
07:09 78.3 °F 77.4 °F 30.06 in Calm     97 % 0.00 in
07:14 78.6 °F 77.7 °F 30.05 in Calm     97 % 0.00 in
07:19 79.0 °F 77.7 °F 30.05 in Calm     96 % 0.00 in
07:24 79.2 °F 77.9 °F 30.05 in Calm     96 % 0.00 in
07:29 79.2 °F 77.9 °F 30.05 in Calm     96 % 0.00 in
07:34 79.3 °F 78.1 °F 30.05 in Calm     96 % 0.00 in
07:39 79.5 °F 78.3 °F 30.06 in Calm     96 % 0.00 in
07:44 79.5 °F 78.3 °F 30.06 in Calm     96 % 0.00 in
07:49 79.7 °F 78.1 °F 30.06 in Calm     95 % 0.00 in
07:54 79.9 °F 78.3 °F 30.06 in Calm   1.0 mph 95 % 0.00 in
07:59 80.2 °F 78.6 °F 30.06 in Calm   1.0 mph 95 % 0.00 in
08:04 80.8 °F 79.2 °F 30.05 in Calm   1.0 mph 95 % 0.00 in
08:09 81.1 °F 79.5 °F 30.06 in Calm   1.0 mph 95 % 0.00 in
08:14 81.1 °F 79.2 °F 30.06 in West 1.0 mph 1.0 mph 94 % 0.00 in
08:19 81.3 °F 79.3 °F 30.06 in Calm   1.0 mph 94 % 0.00 in
08:24 82.0 °F 79.2 °F 30.06 in SW 1.0 mph 3.0 mph 91 % 0.00 in
08:30 82.8 °F 79.9 °F 30.06 in Calm   3.0 mph 91 % 0.00 in
08:35 83.5 °F 80.2 °F 30.06 in Calm   3.0 mph 90 % 0.00 in
08:40 84.0 °F 79.7 °F 30.06 in Calm   5.0 mph 87 % 0.00 in
08:45 84.7 °F 80.1 °F 30.06 in Calm   5.0 mph 86 % 0.00 in
08:50 85.3 °F 79.9 °F 30.06 in NNW 3.0 mph 5.0 mph 84 % 0.00 in
08:55 85.1 °F 79.3 °F 30.06 in North 2.0 mph 4.0 mph 83 % 0.00 in
09:00 84.9 °F 78.8 °F 30.06 in WNW 4.0 mph 4.0 mph 82 % 0.00 in
09:05 85.5 °F 79.3 °F 30.06 in Calm   6.0 mph 82 % 0.00 in
09:10 85.8 °F 79.0 °F 30.06 in Calm   6.0 mph 80 % 0.00 in
09:15 85.8 °F 79.0 °F 30.06 in Calm   6.0 mph 80 % 0.00 in
09:20 85.8 °F 78.1 °F 30.07 in Calm   6.0 mph 78 % 0.00 in
09:25 86.5 °F 79.7 °F 30.06 in SW 1.0 mph 6.0 mph 80 % 0.00 in
09:30 87.1 °F 79.3 °F 30.06 in Calm   6.0 mph 78 % 0.00 in
09:35 87.6 °F 79.9 °F 30.06 in Calm   5.0 mph 78 % 0.00 in
09:40 87.3 °F 79.2 °F 30.06 in West 2.0 mph 6.0 mph 77 % 0.00 in
09:45 87.1 °F 79.0 °F 30.06 in NW 3.0 mph 6.0 mph 77 % 0.00 in
09:50 86.4 °F 78.3 °F 30.06 in NW 1.0 mph 6.0 mph 77 % 0.00 in
09:55 86.5 °F 79.2 °F 30.06 in Calm   6.0 mph 79 % 0.00 in
10:00 87.3 °F 79.2 °F 30.06 in NNW 1.0 mph 5.0 mph 77 % 0.00 in
10:05 87.6 °F 79.5 °F 30.06 in NW 4.0 mph 4.0 mph 77 % 0.00 in
10:10 88.0 °F 79.0 °F 30.06 in West 2.0 mph 4.0 mph 75 % 0.00 in
10:15 88.5 °F 80.1 °F 30.05 in North 1.0 mph 4.0 mph 76 % 0.00 in
10:20 88.9 °F 79.2 °F 30.05 in NW 1.0 mph 4.0 mph 73 % 0.00 in
10:25 89.6 °F 80.6 °F 30.05 in South 1.0 mph 4.0 mph 75 % 0.00 in
10:30 90.1 °F 79.0 °F 30.05 in SSW 1.0 mph 4.0 mph 70 % 0.00 in
10:35 90.5 °F 79.0 °F 30.05 in West 2.0 mph 4.0 mph 69 % 0.00 in
10:40 90.7 °F 78.6 °F 30.05 in WSW 4.0 mph 5.0 mph 68 % 0.00 in
10:45 90.1 °F 76.8 °F 30.05 in Calm   6.0 mph 65 % 0.00 in
10:50 90.5 °F 79.3 °F 30.05 in WNW 1.0 mph 6.0 mph 70 % 0.00 in
10:55 91.0 °F 79.9 °F 30.05 in SSW 2.0 mph 6.0 mph 70 % 0.00 in
11:00 90.5 °F 78.4 °F 30.05 in West 2.0 mph 6.0 mph 68 % 0.00 in
11:05 91.2 °F 80.1 °F 30.04 in SSW 1.0 mph 6.0 mph 70 % 0.00 in
11:10 91.9 °F 79.3 °F 30.04 in South 3.0 mph 6.0 mph 67 % 0.00 in
11:15 91.9 °F 79.3 °F 30.04 in WNW 2.0 mph 5.0 mph 67 % 0.00 in
11:20 92.5 °F 79.9 °F 30.04 in Calm   5.0 mph 67 % 0.00 in
11:25 92.5 °F 78.4 °F 30.04 in West 1.0 mph 5.0 mph 64 % 0.00 in
11:31 91.6 °F 78.1 °F 30.04 in West 1.0 mph 6.0 mph 65 % 0.00 in
11:36 92.1 °F 79.2 °F 30.04 in SSE 1.0 mph 6.0 mph 66 % 0.00 in
11:41 92.8 °F 79.3 °F 30.04 in Calm   6.0 mph 65 % 0.00 in
11:46 93.4 °F 79.9 °F 30.04 in SW 1.0 mph 5.0 mph 65 % 0.00 in
11:51 93.4 °F 78.8 °F 30.04 in SE 1.0 mph 3.0 mph 63 % 0.00 in
11:56 93.6 °F 81.0 °F 30.04 in NW 2.0 mph 3.0 mph 67 % 0.00 in
12:01 93.4 °F 78.4 °F 30.03 in NW 3.0 mph 6.0 mph 62 % 0.00 in
12:06 92.8 °F 77.4 °F 30.03 in North 1.0 mph 6.0 mph 61 % 0.00 in
12:11 92.1 °F 76.6 °F 30.02 in Calm   6.0 mph 61 % 0.00 in
12:16 93.0 °F 81.0 °F 30.02 in NNW 3.0 mph 5.0 mph 68 % 0.00 in
12:21 93.7 °F 79.2 °F 30.02 in SSW 2.0 mph 5.0 mph 63 % 0.00 in
12:26 93.9 °F 79.3 °F 30.02 in ESE 2.0 mph 6.0 mph 63 % 0.00 in
12:31 93.7 °F 79.2 °F 30.02 in SW 3.0 mph 7.0 mph 63 % 0.00 in
12:36 94.3 °F 79.7 °F 30.01 in Calm   7.0 mph 63 % 0.00 in
12:41 94.3 °F 78.8 °F 30.01 in West 2.0 mph 7.0 mph 61 % 0.00 in
12:43 93.9 °F 79.3 °F 30.01 in SW 2.0 mph 7.0 mph 63 % 0.00 in
12:48 93.9 °F 79.3 °F 30.01 in Calm   5.0 mph 63 % 0.00 in
12:53 93.7 °F 78.3 °F 30.00 in North 2.0 mph 5.0 mph 61 % 0.00 in
12:58 93.6 °F 78.1 °F 30.00 in NW 3.0 mph 5.0 mph 61 % 0.00 in
13:03 93.7 °F 78.8 °F 29.99 in SSE 3.0 mph 5.0 mph 62 % 0.00 in
13:08 94.6 °F 79.5 °F 29.99 in Calm   7.0 mph 62 % 0.00 in
13:13 94.8 °F 79.3 °F 29.99 in NW 3.0 mph 7.0 mph 61 % 0.00 in
13:18 94.8 °F 79.7 °F 29.98 in South 5.0 mph 7.0 mph 62 % 0.00 in
13:23 95.2 °F 81.5 °F 29.98 in SSW 1.0 mph 6.0 mph 65 % 0.00 in
13:28 95.2 °F 79.2 °F 29.97 in SSW 2.0 mph 6.0 mph 60 % 0.00 in
13:33 95.2 °F 77.5 °F 29.97 in WNW 1.0 mph 6.0 mph 57 % 0.00 in
13:38 94.6 °F 77.5 °F 29.98 in WNW 2.0 mph 6.0 mph 58 % 0.00 in
13:43 94.5 °F 79.3 °F 29.97 in Calm   5.0 mph 62 % 0.00 in
13:48 95.0 °F 77.9 °F 29.97 in NW 2.0 mph 5.0 mph 58 % 0.00 in
13:53 94.6 °F 77.5 °F 29.97 in NW 1.0 mph 6.0 mph 58 % 0.00 in
13:58 93.9 °F 76.8 °F 29.96 in West 1.0 mph 6.0 mph 58 % 0.00 in
14:03 93.6 °F 77.5 °F 29.96 in WNW 1.0 mph 6.0 mph 60 % 0.00 in
14:08 93.0 °F 77.0 °F 29.96 in NW 2.0 mph 6.0 mph 60 % 0.00 in
14:14 92.8 °F 76.8 °F 29.96 in Calm   5.0 mph 60 % 0.00 in
14:19 92.7 °F 76.3 °F 29.96 in WNW 1.0 mph 5.0 mph 59 % 0.00 in
14:24 92.7 °F 77.2 °F 29.96 in WNW 2.0 mph 5.0 mph 61 % 0.00 in
14:29 90.3 °F 75.6 °F 29.97 in NW 9.0 mph 9.0 mph 62 % 0.00 in
14:34 87.1 °F 74.8 °F 29.97 in West 12.0 mph 19.0 mph 67 % 0.00 in
14:39 85.1 °F 75.0 °F 29.98 in NNE 6.0 mph 19.0 mph 72 % 0.00 in
14:44 83.5 °F 75.6 °F 29.98 in NNE 10.0 mph 19.0 mph 77 % 0.00 in
14:49 81.3 °F 75.7 °F 29.99 in ENE 5.0 mph 14.0 mph 83 % 0.00 in
14:54 79.3 °F 75.2 °F 30.03 in NE 2.0 mph 17.0 mph 87 % 0.08 in
14:59 77.7 °F 74.3 °F 30.04 in SSE 4.0 mph 17.0 mph 89 % 0.28 in
15:04 76.6 °F 73.8 °F 30.03 in SE 6.0 mph 17.0 mph 91 % 0.52 in
15:09 76.3 °F 73.8 °F 30.03 in SSW 5.0 mph 13.0 mph 92 % 0.75 in
15:14 75.6 °F 73.4 °F 30.02 in ESE 2.0 mph 8.0 mph 93 % 0.88 in
15:19 75.4 °F 73.6 °F 30.01 in SE 3.0 mph 8.0 mph 94 % 0.93 in
15:24 75.4 °F 73.8 °F 30.00 in ESE 4.0 mph 8.0 mph 95 % 0.94 in
15:29 75.4 °F 73.8 °F 29.99 in SE 2.0 mph 8.0 mph 95 % 0.94 in
15:34 75.2 °F 73.6 °F 29.99 in ENE 1.0 mph 8.0 mph 95 % 0.94 in
15:39 74.8 °F 73.6 °F 29.99 in ESE 7.0 mph 8.0 mph 96 % 0.94 in
15:44 75.0 °F 73.8 °F 29.98 in SSE 2.0 mph 11.0 mph 96 % 0.94 in
15:49 75.0 °F 73.8 °F 29.98 in SE 8.0 mph 11.0 mph 96 % 0.93 in
15:54 75.0 °F 73.8 °F 29.98 in ESE 7.0 mph 11.0 mph 96 % 0.85 in
15:59 75.0 °F 74.1 °F 29.98 in SSE 6.0 mph 10.0 mph 97 % 0.66 in
16:04 75.0 °F 74.1 °F 29.99 in SE 2.0 mph 10.0 mph 97 % 0.41 in
16:09 74.8 °F 73.9 °F 30.00 in Calm   8.0 mph 97 % 0.18 in
16:14 74.8 °F 73.9 °F 30.02 in NW 2.0 mph 8.0 mph 97 % 0.06 in
16:19 75.0 °F 74.5 °F 30.02 in NW 1.0 mph 7.0 mph 98 % 0.02 in
16:24 74.8 °F 73.9 °F 30.02 in NNW 3.0 mph 6.0 mph 97 % 0.01 in
16:29 75.0 °F 74.1 °F 30.03 in NNW 4.0 mph 6.0 mph 97 % 0.01 in
16:34 75.2 °F 74.7 °F 30.03 in NNW 3.0 mph 6.0 mph 98 % 0.01 in
16:39 75.4 °F 74.5 °F 30.04 in NNE 6.0 mph 6.0 mph 97 % 0.07 in
16:44 75.2 °F 74.3 °F 30.04 in Calm   6.0 mph 97 % 0.12 in
16:49 75.2 °F 74.3 °F 30.04 in Calm   6.0 mph 97 % 0.16 in
16:54 75.2 °F 74.7 °F 30.03 in Calm   6.0 mph 98 % 0.18 in
16:59 75.2 °F 74.7 °F 30.03 in ESE 2.0 mph 3.0 mph 98 % 0.19 in
17:04 75.4 °F 74.8 °F 30.03 in Calm   3.0 mph 98 % 0.21 in
17:09 75.2 °F 74.7 °F 30.02 in Calm   4.0 mph 98 % 0.21 in
17:14 75.0 °F 74.5 °F 30.02 in ESE 2.0 mph 4.0 mph 98 % 0.23 in
17:19 75.0 °F 74.5 °F 30.01 in SE 3.0 mph 4.0 mph 98 % 0.25 in
17:24 75.0 °F 74.5 °F 30.01 in ESE 1.0 mph 5.0 mph 98 % 0.32 in
17:29 74.8 °F 73.9 °F 30.00 in South 2.0 mph 5.0 mph 97 % 0.35 in
17:34 74.7 °F 74.1 °F 30.00 in Calm   5.0 mph 98 % 0.34 in
17:39 74.5 °F 73.9 °F 30.00 in Calm   5.0 mph 98 % 0.30 in
17:44 74.7 °F 74.1 °F 30.00 in Calm   5.0 mph 98 % 0.25 in
17:49 74.7 °F 74.1 °F 30.00 in ENE 1.0 mph 2.0 mph 98 % 0.21 in
17:54 74.7 °F 74.1 °F 30.00 in Calm   3.0 mph 98 % 0.20 in
17:59 74.7 °F 74.1 °F 30.00 in Calm   3.0 mph 98 % 0.21 in
18:04 74.8 °F 74.3 °F 30.00 in Calm   3.0 mph 98 % 0.20 in
18:09 74.8 °F 74.3 °F 29.99 in Calm   2.0 mph 98 % 0.22 in
18:14 74.8 °F 74.3 °F 29.99 in Calm   1.0 mph 98 % 0.21 in
18:19 74.8 °F 74.3 °F 29.98 in Calm   1.0 mph 98 % 0.18 in
18:24 75.0 °F 74.5 °F 29.97 in Calm   1.0 mph 98 % 0.10 in
18:29 74.8 °F 74.3 °F 29.96 in Calm   1.0 mph 98 % 0.09 in
18:34 75.0 °F 74.5 °F 29.96 in Calm   1.0 mph 98 % 0.09 in
18:39 75.0 °F 74.5 °F 29.96 in Calm   1.0 mph 98 % 0.08 in
18:44 75.0 °F 74.7 °F 29.95 in Calm   1.0 mph 99 % 0.08 in
18:49 75.0 °F 74.5 °F 29.94 in Calm   1.0 mph 98 % 0.08 in
18:54 75.0 °F 74.5 °F 29.94 in Calm   1.0 mph 98 % 0.07 in
18:59 75.0 °F 74.5 °F 29.94 in Calm   1.0 mph 98 % 0.05 in
19:04 74.8 °F 74.3 °F 29.93 in Calm   1.0 mph 98 % 0.03 in
19:09 75.0 °F 74.7 °F 29.92 in Calm   2.0 mph 99 % 0.02 in
19:14 74.8 °F 74.5 °F 29.92 in Calm   2.0 mph 99 % 0.01 in
19:19 74.8 °F 74.3 °F 29.92 in Calm   2.0 mph 98 % 0.01 in
19:25 74.8 °F 74.5 °F 29.93 in Calm   1.0 mph 99 % 0.01 in
19:30 75.0 °F 74.7 °F 29.93 in NW 1.0 mph 2.0 mph 99 % 0.00 in
19:35 75.0 °F 74.7 °F 29.94 in Calm   3.0 mph 99 % 0.00 in
19:40 75.2 °F 74.8 °F 29.94 in Calm   3.0 mph 99 % 0.00 in
19:45 75.4 °F 75.0 °F 29.94 in Calm   3.0 mph 99 % 0.00 in
19:50 75.4 °F 75.0 °F 29.94 in Calm   2.0 mph 99 % 0.00 in
19:55 75.4 °F 75.0 °F 29.94 in Calm   2.0 mph 99 % 0.00 in
20:00 75.0 °F 74.7 °F 29.93 in ENE 1.0 mph 1.0 mph 99 % 0.00 in
20:05 74.8 °F 74.3 °F 29.93 in Calm   3.0 mph 98 % 0.00 in
20:10 74.8 °F 74.5 °F 29.93 in ESE 1.0 mph 3.0 mph 99 % 0.00 in
20:15 74.7 °F 74.1 °F 29.92 in Calm   3.0 mph 98 % 0.00 in
20:20 74.5 °F 74.1 °F 29.92 in ESE 2.0 mph 2.0 mph 99 % 0.00 in
20:25 74.5 °F 74.1 °F 29.93 in Calm   3.0 mph 99 % 0.00 in
20:30 74.3 °F 73.9 °F 29.94 in Calm   3.0 mph 99 % 0.00 in
20:35 74.5 °F 74.1 °F 29.94 in ENE 1.0 mph 3.0 mph 99 % 0.00 in
20:40 74.5 °F 74.1 °F 29.94 in Calm   3.0 mph 99 % 0.00 in
20:45 74.5 °F 74.1 °F 29.94 in Calm   2.0 mph 99 % 0.00 in
20:50 74.3 °F 73.9 °F 29.95 in East 1.0 mph 2.0 mph 99 % 0.00 in
20:55 74.1 °F 73.8 °F 29.94 in Calm   2.0 mph 99 % 0.00 in
21:00 74.1 °F 73.8 °F 29.95 in Calm   2.0 mph 99 % 0.00 in
21:05 74.1 °F 73.8 °F 29.95 in Calm   2.0 mph 99 % 0.00 in
21:10 74.1 °F 73.8 °F 29.96 in Calm   1.0 mph 99 % 0.00 in
21:15 73.9 °F 73.6 °F 29.95 in Calm   1.0 mph 99 % 0.00 in
21:20 73.9 °F 73.6 °F 29.95 in Calm   1.0 mph 99 % 0.00 in
21:25 73.9 °F 73.6 °F 29.95 in Calm   1.0 mph 99 % 0.00 in
21:30 73.8 °F 73.4 °F 29.95 in Calm     99 % 0.00 in
21:35 73.9 °F 73.6 °F 29.96 in Calm   1.0 mph 99 % 0.00 in
21:40 74.1 °F 73.8 °F 29.96 in WNW 1.0 mph 1.0 mph 99 % 0.00 in
21:45 73.9 °F 73.6 °F 29.96 in Calm   1.0 mph 99 % 0.00 in
21:50 73.9 °F 73.6 °F 29.96 in Calm   1.0 mph 99 % 0.00 in
21:55 74.1 °F 73.8 °F 29.96 in Calm   1.0 mph 99 % 0.00 in
22:00 74.1 °F 73.8 °F 29.96 in Calm     99 % 0.00 in
22:05 73.9 °F 73.6 °F 29.96 in Calm   1.0 mph 99 % 0.00 in
22:10 73.8 °F 73.4 °F 29.97 in Calm   1.0 mph 99 % 0.00 in
22:15 73.9 °F 73.6 °F 29.97 in Calm   1.0 mph 99 % 0.00 in
22:20 73.9 °F 73.6 °F 29.97 in Calm   1.0 mph 99 % 0.00 in
22:25 73.9 °F 73.6 °F 29.98 in Calm   1.0 mph 99 % 0.00 in
22:30 73.9 °F 73.6 °F 29.98 in Calm     99 % 0.00 in
22:35 74.1 °F 73.8 °F 29.98 in Calm   1.0 mph 99 % 0.00 in
22:40 73.9 °F 73.6 °F 29.98 in Calm   1.0 mph 99 % 0.00 in
22:45 74.1 °F 73.8 °F 29.98 in Calm   1.0 mph 99 % 0.00 in
22:50 74.1 °F 73.8 °F 29.98 in Calm     99 % 0.00 in
22:55 73.9 °F 73.6 °F 29.98 in Calm     99 % 0.00 in
23:00 73.9 °F 73.6 °F 29.98 in Calm     99 % 0.00 in
23:05 73.8 °F 73.4 °F 29.98 in Calm     99 % 0.00 in
23:10 73.6 °F 73.2 °F 29.98 in Calm     99 % 0.00 in
23:15 73.8 °F 73.4 °F 29.98 in Calm     99 % 0.00 in
23:20 73.8 °F 73.4 °F 29.98 in Calm     99 % 0.00 in
23:25 73.8 °F 73.4 °F 29.98 in Calm     99 % 0.00 in
23:30 73.8 °F 73.4 °F 29.98 in Calm     99 % 0.00 in
23:35 73.6 °F 73.2 °F 29.99 in Calm     99 % 0.00 in
23:40 73.8 °F 73.8 °F 29.99 in Calm     100 % 0.00 in
23:45 73.9 °F 73.9 °F 29.98 in Calm     100 % 0.00 in
23:50 73.9 °F 73.9 °F 29.98 in Calm   1.0 mph 100 % 0.00 in
23:55 73.9 °F 73.6 °F 29.98 in Calm   1.0 mph 99 % 0.00 in
Spring, Texas: Villages of Bridgestone
Compliments of Weather Underground - 2.75 mb

Script developed by  Jim McMurry - jmcmurry@mwt.net Adapted for the template by  Wim van der Kuil - Leuven-Template.eu

You find our weather info also at:

UK Metoffice

WeatherCloud

Weather Underground

Mid-South Weather Network

AWEKAS

Citizen Weather Observer Program (CWOP)

HAMweather, WeatherForYou, PWS Weather

Equipment we use:

Weather-station
Davis Vantage Vue

Weather-program
Meteohub

Weather-server
Debian 7.9 x86 (Guest)

Provider
DreamHost

Davis Vantage Vue

Meteohub

Debian 7.9 x86 (Guest)

DreamHost